Disclaimer

Please do not use the information listed here in-flight or in-navigation, as they are not provided to us by the airports but are provided by volunteers, so they might be outdated.

Search


Regions


Airport information page

Radio informations:
443 SQUADRON - 349.3 MHz
ESSO - 122.95 MHz
Automatic Terminal Information Service (ATIS) - 118.8 MHz
Approach/Departure (APP/DEP) - 127.8 MHz

Airport informations:
Latitude: 48° 38' 49.00" N
Longitude: 123° 25' 33.00" W
Elevation: 63 feet - 19 meters
Operating hours: 24 hour operations
Operating agency: Civil government, landing fees and diplomatic clearance may be required
Timezone: UTC-8(-7DT) - Second Sunday in March at 0200 to first Sunday in November at 0200 local time (Exception Arizona and that portion of Indiana in the Eastern Time Zone)
Fuel: Jet A1, without icing nhibitor.

100/130 MIL Spec, low lead, aviation gasoline (BLUE)

Runway information:
02/20 - 5026 x 200 feet< - >1532 x 61 meters
09/27 - 7000 x 200 feet< - >2134 x 61 meters
13/31 - 5003 x 200 feet< - >1525 x 61 meters

Recent METARs:
CYYJ 190100Z 00000KT 30SM FEW250 03/00 A3018 RMK CI1 CI TR SLP222
CYYJ 190143Z 00000KT 30SM FEW250 02/01 A3017 RMK CI1 CI TR SLP220
CYYJ 190200Z 26003KT 30SM FEW250 02/01 A3017 RMK CI1 CI TR SLP220

Airport on the map: